DLH594 DNAA-DNPO
Flight info
| Callsign | DLH594 |
|---|---|
| Flight time | 0h 59m |
| Altitude | 32000 |
| Route | IKVAD1Q IKVAD DCT IVBUV UV456 BORMO |
| Aircraft | A343/H-SDE2E3FGHIJ3J5M1P2RWXYZ/LB1D1 |
Departure
| Time | 2026-04-25 07:51 |
|---|---|
| Airport | Nnamdi Azikiwe International Airport (DNAA) |
Arrival
| Time | 2026-04-25 08:50 |
|---|---|
| Airport | Port Harcourt International Airport (DNPO) |
| Time | Latitude | Longitude | Altitude | Speed | Heading |
|---|---|---|---|---|---|
| 2026-04-25 07:41 | 9.00576 | 7.26755 | 1130 ft | 0 kts | 0° |
| 2026-04-25 07:42 | 9.00573 | 7.26754 | 1130 ft | 2 kts | 360° |
| 2026-04-25 07:42 | 9.00555 | 7.26755 | 1131 ft | 3 kts | 355° |
| 2026-04-25 07:42 | 9.00534 | 7.26757 | 1135 ft | 3 kts | 349° |
| 2026-04-25 07:42 | 9.00515 | 7.26762 | 1135 ft | 3 kts | 340° |
| 2026-04-25 07:43 | 9.00497 | 7.26770 | 1135 ft | 3 kts | 321° |
| 2026-04-25 07:43 | 9.00485 | 7.26783 | 1135 ft | 3 kts | 277° |
| 2026-04-25 07:43 | 9.00485 | 7.26793 | 1135 ft | 1 kts | 250° |
| 2026-04-25 07:43 | 9.00486 | 7.26796 | 1135 ft | 0 kts | 250° |
| 2026-04-25 07:45 | 9.00485 | 7.26792 | 1135 ft | 1 kts | 250° |
| 2026-04-25 07:45 | 9.00478 | 7.26773 | 1135 ft | 6 kts | 250° |
| 2026-04-25 07:46 | 9.00460 | 7.26727 | 1134 ft | 8 kts | 247° |
| 2026-04-25 07:46 | 9.00448 | 7.26669 | 1133 ft | 9 kts | 278° |
| 2026-04-25 07:46 | 9.00507 | 7.26608 | 1117 ft | 16 kts | 327° |
| 2026-04-25 07:46 | 9.00604 | 7.26518 | 1111 ft | 20 kts | 317° |
| 2026-04-25 07:47 | 9.00676 | 7.26517 | 1112 ft | 9 kts | 33° |
| 2026-04-25 07:47 | 9.00737 | 7.26563 | 1117 ft | 13 kts | 36° |
| 2026-04-25 07:47 | 9.00825 | 7.26624 | 1119 ft | 17 kts | 34° |
| 2026-04-25 07:47 | 9.00938 | 7.26704 | 1116 ft | 23 kts | 35° |
| 2026-04-25 07:48 | 9.01081 | 7.26805 | 1116 ft | 27 kts | 35° |
| 2026-04-25 07:48 | 9.01229 | 7.26910 | 1135 ft | 26 kts | 35° |
| 2026-04-25 07:48 | 9.01379 | 7.27016 | 1136 ft | 27 kts | 35° |
| 2026-04-25 07:48 | 9.01529 | 7.27122 | 1137 ft | 27 kts | 35° |
| 2026-04-25 07:49 | 9.01685 | 7.27232 | 1137 ft | 28 kts | 35° |
| 2026-04-25 07:49 | 9.01817 | 7.27326 | 1138 ft | 17 kts | 35° |
| 2026-04-25 07:49 | 9.01910 | 7.27362 | 1136 ft | 11 kts | 344° |
| 2026-04-25 07:49 | 9.01962 | 7.27307 | 1139 ft | 11 kts | 304° |
| 2026-04-25 07:50 | 9.01966 | 7.27233 | 1136 ft | 11 kts | 240° |
| 2026-04-25 07:50 | 9.01905 | 7.27183 | 1138 ft | 12 kts | 215° |
| 2026-04-25 07:50 | 9.01801 | 7.27109 | 1138 ft | 39 kts | 215° |
| 2026-04-25 07:50 | 9.01389 | 7.26818 | 1137 ft | 103 kts | 215° |
| 2026-04-25 07:51 | 9.00647 | 7.26294 | 1110 ft | 155 kts | 215° |
| 2026-04-25 07:51 | 8.99719 | 7.25649 | 1605 ft | 163 kts | 213° |
| 2026-04-25 07:51 | 8.98784 | 7.25003 | 2266 ft | 163 kts | 215° |
| 2026-04-25 07:51 | 8.97674 | 7.24540 | 2628 ft | 192 kts | 182° |
| 2026-04-25 07:52 | 8.96228 | 7.24552 | 2924 ft | 227 kts | 187° |
| 2026-04-25 07:52 | 8.95121 | 7.24441 | 3287 ft | 243 kts | 187° |
| 2026-04-25 07:52 | 8.93402 | 7.24289 | 4175 ft | 251 kts | 186° |
| 2026-04-25 07:52 | 8.91659 | 7.24165 | 5063 ft | 259 kts | 184° |
| 2026-04-25 07:53 | 8.89821 | 7.24052 | 5866 ft | 270 kts | 183° |
| 2026-04-25 07:53 | 8.87915 | 7.23945 | 6662 ft | 278 kts | 181° |
| 2026-04-25 07:53 | 8.85955 | 7.23841 | 7461 ft | 285 kts | 181° |
| 2026-04-25 07:53 | 8.83952 | 7.23736 | 8283 ft | 292 kts | 181° |
| 2026-04-25 07:54 | 8.81908 | 7.23631 | 9133 ft | 298 kts | 181° |
| 2026-04-25 07:54 | 8.79819 | 7.23523 | 9999 ft | 303 kts | 181° |
| 2026-04-25 07:54 | 8.77667 | 7.23365 | 10535 ft | 321 kts | 185° |
| 2026-04-25 07:54 | 8.75374 | 7.23095 | 10879 ft | 341 kts | 185° |
| 2026-04-25 07:55 | 8.72970 | 7.22865 | 11470 ft | 351 kts | 183° |
| 2026-04-25 07:55 | 8.70521 | 7.22687 | 12219 ft | 355 kts | 182° |
| 2026-04-25 07:55 | 8.68042 | 7.22541 | 13016 ft | 358 kts | 181° |
| 2026-04-25 07:55 | 8.65535 | 7.22413 | 13786 ft | 362 kts | 181° |
| 2026-04-25 07:56 | 8.63012 | 7.22294 | 14495 ft | 365 kts | 181° |
| 2026-04-25 07:56 | 8.60468 | 7.22180 | 15212 ft | 367 kts | 181° |
| 2026-04-25 07:56 | 8.57903 | 7.22068 | 15951 ft | 370 kts | 181° |
| 2026-04-25 07:56 | 8.55326 | 7.21957 | 16685 ft | 373 kts | 181° |
| 2026-04-25 07:57 | 8.52728 | 7.21846 | 17439 ft | 375 kts | 181° |
| 2026-04-25 07:57 | 8.50110 | 7.21735 | 18177 ft | 378 kts | 181° |
| 2026-04-25 07:57 | 8.47480 | 7.21624 | 18839 ft | 380 kts | 182° |
| 2026-04-25 07:57 | 8.44855 | 7.21513 | 19388 ft | 385 kts | 182° |
| 2026-04-25 07:58 | 8.42172 | 7.21399 | 19971 ft | 388 kts | 182° |
| 2026-04-25 07:58 | 8.39457 | 7.21284 | 20550 ft | 391 kts | 183° |
| 2026-04-25 07:58 | 8.36730 | 7.21169 | 21163 ft | 394 kts | 183° |
| 2026-04-25 07:58 | 8.33982 | 7.21053 | 21766 ft | 397 kts | 183° |
| 2026-04-25 07:59 | 8.31206 | 7.20936 | 22267 ft | 402 kts | 184° |
| 2026-04-25 07:59 | 8.28397 | 7.20817 | 22786 ft | 406 kts | 184° |
| 2026-04-25 07:59 | 8.25557 | 7.20697 | 23319 ft | 410 kts | 184° |
| 2026-04-25 07:59 | 8.22696 | 7.20576 | 23801 ft | 413 kts | 184° |
| 2026-04-25 08:00 | 8.19812 | 7.20454 | 24258 ft | 416 kts | 184° |
| 2026-04-25 08:00 | 8.16911 | 7.20314 | 24709 ft | 419 kts | 184° |
| 2026-04-25 08:00 | 8.13987 | 7.20148 | 25124 ft | 423 kts | 185° |
| 2026-04-25 08:00 | 8.11045 | 7.19971 | 25604 ft | 425 kts | 184° |
| 2026-04-25 08:01 | 8.08091 | 7.19792 | 26095 ft | 426 kts | 185° |
| 2026-04-25 08:01 | 8.05117 | 7.19613 | 26493 ft | 430 kts | 184° |
| 2026-04-25 08:01 | 8.02120 | 7.19436 | 26884 ft | 433 kts | 184° |
| 2026-04-25 08:01 | 7.99095 | 7.19260 | 27282 ft | 437 kts | 184° |
| 2026-04-25 08:02 | 7.96058 | 7.19085 | 27711 ft | 439 kts | 184° |
| 2026-04-25 08:02 | 7.93004 | 7.18911 | 28140 ft | 441 kts | 184° |
| 2026-04-25 08:02 | 7.89927 | 7.18735 | 28468 ft | 445 kts | 183° |
| 2026-04-25 08:02 | 7.86808 | 7.18557 | 28717 ft | 451 kts | 182° |
| 2026-04-25 08:03 | 7.83665 | 7.18347 | 29095 ft | 454 kts | 184° |
| 2026-04-25 08:03 | 7.80513 | 7.18047 | 29486 ft | 457 kts | 185° |
| 2026-04-25 08:03 | 7.77343 | 7.17704 | 29832 ft | 460 kts | 185° |
| 2026-04-25 08:03 | 7.74197 | 7.17353 | 30142 ft | 463 kts | 185° |
| 2026-04-25 08:04 | 7.70947 | 7.16996 | 30472 ft | 464 kts | 185° |
| 2026-04-25 08:04 | 7.67731 | 7.16654 | 30818 ft | 465 kts | 185° |
| 2026-04-25 08:04 | 7.64550 | 7.16324 | 31130 ft | 467 kts | 185° |
| 2026-04-25 08:04 | 7.61309 | 7.15995 | 31445 ft | 469 kts | 184° |
| 2026-04-25 08:05 | 7.58061 | 7.15681 | 31779 ft | 470 kts | 184° |
| 2026-04-25 08:05 | 7.54798 | 7.15387 | 31912 ft | 469 kts | 184° |
| 2026-04-25 08:05 | 7.51603 | 7.15107 | 31945 ft | 453 kts | 184° |
| 2026-04-25 08:05 | 7.48511 | 7.14837 | 31947 ft | 440 kts | 184° |
| 2026-04-25 08:06 | 7.42451 | 7.14306 | 31937 ft | 437 kts | 184° |
| 2026-04-25 08:06 | 7.36378 | 7.13767 | 31935 ft | 438 kts | 184° |
| 2026-04-25 08:07 | 7.30300 | 7.13224 | 31938 ft | 438 kts | 184° |
| 2026-04-25 08:07 | 7.24224 | 7.12680 | 31938 ft | 438 kts | 184° |
| 2026-04-25 08:08 | 7.18153 | 7.12138 | 31936 ft | 438 kts | 184° |
| 2026-04-25 08:08 | 7.12077 | 7.11595 | 31936 ft | 438 kts | 184° |
| 2026-04-25 08:09 | 7.06005 | 7.11051 | 31936 ft | 438 kts | 184° |
| 2026-04-25 08:09 | 6.99929 | 7.10509 | 31935 ft | 438 kts | 184° |
| 2026-04-25 08:10 | 6.93858 | 7.09925 | 31939 ft | 438 kts | 186° |
| 2026-04-25 08:10 | 6.87835 | 7.08915 | 31938 ft | 439 kts | 189° |
| 2026-04-25 08:11 | 6.81814 | 7.08222 | 31939 ft | 438 kts | 184° |
| 2026-04-25 08:11 | 6.75739 | 7.07786 | 31938 ft | 438 kts | 182° |
| 2026-04-25 08:12 | 6.69662 | 7.07428 | 31939 ft | 437 kts | 182° |
| 2026-04-25 08:12 | 6.63586 | 7.07079 | 31938 ft | 437 kts | 182° |
| 2026-04-25 08:13 | 6.57515 | 7.06723 | 31939 ft | 437 kts | 182° |
| 2026-04-25 08:14 | 6.48411 | 7.06045 | 31939 ft | 438 kts | 184° |
| 2026-04-25 08:14 | 6.42354 | 7.05449 | 31939 ft | 437 kts | 185° |
| 2026-04-25 08:15 | 6.36288 | 7.04868 | 31937 ft | 438 kts | 185° |
| 2026-04-25 08:15 | 6.30215 | 7.04308 | 31938 ft | 438 kts | 185° |
| 2026-04-25 08:16 | 6.24138 | 7.03757 | 31940 ft | 438 kts | 184° |
| 2026-04-25 08:16 | 6.18063 | 7.03206 | 31941 ft | 438 kts | 184° |
| 2026-04-25 08:17 | 6.11984 | 7.02654 | 31937 ft | 438 kts | 184° |
| 2026-04-25 08:17 | 6.05905 | 7.02124 | 31938 ft | 438 kts | 184° |
| 2026-04-25 08:18 | 5.99828 | 7.01629 | 31943 ft | 438 kts | 184° |
| 2026-04-25 08:18 | 5.93762 | 7.01135 | 31944 ft | 437 kts | 184° |
| 2026-04-25 08:19 | 5.87736 | 7.00637 | 31938 ft | 437 kts | 184° |
| 2026-04-25 08:19 | 5.84737 | 7.00087 | 31940 ft | 438 kts | 197° |
| 2026-04-25 08:19 | 5.81954 | 6.98853 | 31938 ft | 439 kts | 211° |
| 2026-04-25 08:19 | 5.79596 | 6.96915 | 31940 ft | 440 kts | 227° |
| 2026-04-25 08:20 | 5.77813 | 6.94414 | 31940 ft | 442 kts | 238° |
| 2026-04-25 08:20 | 5.74767 | 6.89038 | 31938 ft | 444 kts | 239° |
| 2026-04-25 08:21 | 5.71731 | 6.83634 | 31931 ft | 444 kts | 239° |
| 2026-04-25 08:21 | 5.68679 | 6.78232 | 31933 ft | 445 kts | 239° |
| 2026-04-25 08:22 | 5.65620 | 6.72825 | 31935 ft | 445 kts | 239° |
| 2026-04-25 08:22 | 5.62560 | 6.67423 | 31930 ft | 445 kts | 239° |
| 2026-04-25 08:23 | 5.59500 | 6.62023 | 31933 ft | 445 kts | 239° |
| 2026-04-25 08:23 | 5.56462 | 6.56663 | 31933 ft | 445 kts | 239° |
| 2026-04-25 08:24 | 5.53403 | 6.51268 | 31930 ft | 445 kts | 239° |
| 2026-04-25 08:24 | 5.50343 | 6.45871 | 31929 ft | 445 kts | 239° |
| 2026-04-25 08:25 | 5.47282 | 6.40474 | 31930 ft | 445 kts | 239° |
| 2026-04-25 08:25 | 5.44218 | 6.35074 | 31930 ft | 445 kts | 239° |
| 2026-04-25 08:26 | 5.41152 | 6.29672 | 31928 ft | 445 kts | 239° |
| 2026-04-25 08:26 | 5.38088 | 6.24274 | 31928 ft | 445 kts | 239° |
| 2026-04-25 08:27 | 5.34260 | 6.19552 | 31933 ft | 440 kts | 213° |
| 2026-04-25 08:27 | 5.31540 | 6.18185 | 31931 ft | 437 kts | 196° |
| 2026-04-25 08:27 | 5.28552 | 6.17703 | 31930 ft | 436 kts | 179° |
| 2026-04-25 08:27 | 5.25566 | 6.18143 | 31931 ft | 435 kts | 161° |
| 2026-04-25 08:28 | 5.22856 | 6.19464 | 31928 ft | 435 kts | 144° |
| 2026-04-25 08:28 | 5.20665 | 6.21546 | 31927 ft | 435 kts | 127° |
| 2026-04-25 08:28 | 5.19204 | 6.24190 | 31928 ft | 436 kts | 110° |
| 2026-04-25 08:28 | 5.18601 | 6.27165 | 31927 ft | 437 kts | 92° |
| 2026-04-25 08:29 | 5.18917 | 6.30194 | 31930 ft | 439 kts | 75° |
| 2026-04-25 08:29 | 5.21236 | 6.35880 | 31929 ft | 441 kts | 71° |
| 2026-04-25 08:30 | 5.22639 | 6.41852 | 31925 ft | 440 kts | 89° |
| 2026-04-25 08:30 | 5.22369 | 6.44867 | 31564 ft | 434 kts | 105° |
| 2026-04-25 08:30 | 5.21306 | 6.47702 | 31274 ft | 440 kts | 115° |
| 2026-04-25 08:30 | 5.19990 | 6.50528 | 31146 ft | 454 kts | 116° |
| 2026-04-25 08:31 | 5.18639 | 6.53434 | 31069 ft | 465 kts | 115° |
| 2026-04-25 08:31 | 5.17290 | 6.56390 | 30856 ft | 465 kts | 115° |
| 2026-04-25 08:31 | 5.15962 | 6.59335 | 30336 ft | 464 kts | 115° |
| 2026-04-25 08:31 | 5.14643 | 6.62271 | 29851 ft | 460 kts | 115° |
| 2026-04-25 08:32 | 5.13154 | 6.65091 | 29304 ft | 455 kts | 123° |
| 2026-04-25 08:32 | 5.11245 | 6.67592 | 28780 ft | 450 kts | 134° |
| 2026-04-25 08:32 | 5.08896 | 6.69634 | 28221 ft | 446 kts | 146° |
| 2026-04-25 08:32 | 5.06172 | 6.71085 | 27704 ft | 442 kts | 159° |
| 2026-04-25 08:33 | 5.03210 | 6.71840 | 27210 ft | 438 kts | 173° |
| 2026-04-25 08:33 | 5.00187 | 6.71837 | 26739 ft | 434 kts | 188° |
| 2026-04-25 08:33 | 4.97298 | 6.71038 | 26262 ft | 431 kts | 203° |
| 2026-04-25 08:33 | 4.94746 | 6.69493 | 25744 ft | 429 kts | 219° |
| 2026-04-25 08:34 | 4.92721 | 6.67318 | 25251 ft | 427 kts | 234° |
| 2026-04-25 08:34 | 4.91337 | 6.64693 | 24783 ft | 426 kts | 249° |
| 2026-04-25 08:34 | 4.90722 | 6.61794 | 24275 ft | 426 kts | 265° |
| 2026-04-25 08:34 | 4.90856 | 6.58845 | 23812 ft | 424 kts | 279° |
| 2026-04-25 08:35 | 4.91677 | 6.56060 | 23323 ft | 423 kts | 293° |
| 2026-04-25 08:35 | 4.93133 | 6.53516 | 22819 ft | 420 kts | 304° |
| 2026-04-25 08:35 | 4.94833 | 6.51145 | 22344 ft | 416 kts | 306° |
| 2026-04-25 08:35 | 4.96574 | 6.48844 | 21874 ft | 412 kts | 307° |
| 2026-04-25 08:36 | 4.98292 | 6.46562 | 21404 ft | 409 kts | 307° |
| 2026-04-25 08:36 | 5.00029 | 6.44308 | 20882 ft | 407 kts | 308° |
| 2026-04-25 08:36 | 5.02007 | 6.42302 | 20436 ft | 404 kts | 321° |
| 2026-04-25 08:36 | 5.04373 | 6.40826 | 20002 ft | 399 kts | 335° |
| 2026-04-25 08:37 | 5.06995 | 6.39988 | 19568 ft | 395 kts | 350° |
| 2026-04-25 08:37 | 5.09723 | 6.39837 | 19125 ft | 391 kts | 4° |
| 2026-04-25 08:37 | 5.12388 | 6.40318 | 18690 ft | 388 kts | 18° |
| 2026-04-25 08:37 | 5.14830 | 6.41410 | 18284 ft | 384 kts | 32° |
| 2026-04-25 08:38 | 5.16890 | 6.43079 | 17815 ft | 380 kts | 47° |
| 2026-04-25 08:38 | 5.18407 | 6.45225 | 17339 ft | 376 kts | 63° |
| 2026-04-25 08:38 | 5.19261 | 6.47688 | 16899 ft | 373 kts | 79° |
| 2026-04-25 08:38 | 5.19387 | 6.50268 | 16451 ft | 370 kts | 95° |
| 2026-04-25 08:39 | 5.18773 | 6.52742 | 16224 ft | 362 kts | 110° |
| 2026-04-25 08:39 | 5.17805 | 6.55035 | 15810 ft | 353 kts | 112° |
| 2026-04-25 08:39 | 5.16843 | 6.57283 | 14760 ft | 348 kts | 111° |
| 2026-04-25 08:39 | 5.15885 | 6.59505 | 13553 ft | 346 kts | 111° |
| 2026-04-25 08:40 | 5.14926 | 6.61697 | 12344 ft | 340 kts | 111° |
| 2026-04-25 08:40 | 5.13982 | 6.63831 | 11543 ft | 325 kts | 112° |
| 2026-04-25 08:40 | 5.13094 | 6.65825 | 11073 ft | 303 kts | 112° |
| 2026-04-25 08:40 | 5.12251 | 6.67712 | 10471 ft | 291 kts | 112° |
| 2026-04-25 08:41 | 5.11432 | 6.69549 | 10039 ft | 287 kts | 112° |
| 2026-04-25 08:41 | 5.10619 | 6.71371 | 9690 ft | 286 kts | 112° |
| 2026-04-25 08:41 | 5.09809 | 6.73185 | 9380 ft | 284 kts | 112° |
| 2026-04-25 08:41 | 5.09001 | 6.74989 | 9052 ft | 283 kts | 112° |
| 2026-04-25 08:42 | 5.08198 | 6.76788 | 8702 ft | 282 kts | 112° |
| 2026-04-25 08:42 | 5.07746 | 6.78001 | 8480 ft | 280 kts | 105° |
| 2026-04-25 08:42 | 5.07361 | 6.79902 | 8159 ft | 278 kts | 95° |
| 2026-04-25 08:42 | 5.07482 | 6.81827 | 7755 ft | 279 kts | 76° |
| 2026-04-25 08:43 | 5.08348 | 6.83559 | 7381 ft | 280 kts | 52° |
| 2026-04-25 08:43 | 5.09654 | 6.85007 | 7045 ft | 280 kts | 46° |
| 2026-04-25 08:43 | 5.11488 | 6.86828 | 6585 ft | 280 kts | 46° |
| 2026-04-25 08:43 | 5.12878 | 6.88189 | 6154 ft | 277 kts | 45° |
| 2026-04-25 08:44 | 5.13803 | 6.89096 | 5815 ft | 273 kts | 46° |
| 2026-04-25 08:44 | 5.15580 | 6.90840 | 5322 ft | 270 kts | 46° |
| 2026-04-25 08:44 | 5.16489 | 6.91735 | 5095 ft | 272 kts | 45° |
| 2026-04-25 08:44 | 5.17846 | 6.93074 | 4760 ft | 275 kts | 46° |
| 2026-04-25 08:45 | 5.18991 | 6.94590 | 4581 ft | 273 kts | 65° |
| 2026-04-25 08:45 | 5.19424 | 6.96400 | 4370 ft | 266 kts | 92° |
| 2026-04-25 08:45 | 5.19014 | 6.98135 | 4176 ft | 255 kts | 116° |
| 2026-04-25 08:45 | 5.18236 | 6.99668 | 3999 ft | 238 kts | 120° |
| 2026-04-25 08:46 | 5.17423 | 7.01063 | 3548 ft | 227 kts | 127° |
| 2026-04-25 08:46 | 5.16199 | 7.01996 | 2893 ft | 224 kts | 165° |
| 2026-04-25 08:46 | 5.14681 | 7.01988 | 2502 ft | 216 kts | 192° |
| 2026-04-25 08:46 | 5.13354 | 7.01393 | 2444 ft | 200 kts | 212° |
| 2026-04-25 08:47 | 5.12245 | 7.00688 | 2282 ft | 181 kts | 210° |
| 2026-04-25 08:47 | 5.11150 | 7.00118 | 1929 ft | 174 kts | 205° |
| 2026-04-25 08:47 | 5.10116 | 6.99571 | 1675 ft | 161 kts | 208° |
| 2026-04-25 08:47 | 5.09184 | 6.99060 | 1484 ft | 146 kts | 207° |
| 2026-04-25 08:48 | 5.08335 | 6.98603 | 1315 ft | 133 kts | 207° |
| 2026-04-25 08:48 | 5.07525 | 6.98168 | 1148 ft | 132 kts | 206° |
| 2026-04-25 08:48 | 5.06717 | 6.97733 | 986 ft | 132 kts | 206° |
| 2026-04-25 08:48 | 5.05898 | 6.97293 | 813 ft | 133 kts | 207° |
| 2026-04-25 08:49 | 5.05077 | 6.96852 | 647 ft | 134 kts | 206° |
| 2026-04-25 08:49 | 5.04254 | 6.96412 | 462 ft | 134 kts | 207° |
| 2026-04-25 08:49 | 5.03444 | 6.95964 | 263 ft | 130 kts | 206° |
| 2026-04-25 08:49 | 5.02643 | 6.95547 | 123 ft | 130 kts | 207° |
| 2026-04-25 08:50 | 5.01914 | 6.95153 | 92 ft | 97 kts | 208° |
| 2026-04-25 08:50 | 5.01471 | 6.94913 | 87 ft | 56 kts | 207° |
| 2026-04-25 08:50 | 5.01173 | 6.94755 | 86 ft | 34 kts | 207° |
| 2026-04-25 08:50 | 5.00980 | 6.94713 | 87 ft | 23 kts | 182° |
| 2026-04-25 08:51 | 5.00851 | 6.94726 | 87 ft | 14 kts | 151° |
| 2026-04-25 08:51 | 5.00850 | 6.94804 | 84 ft | 13 kts | 44° |
| 2026-04-25 08:51 | 5.00933 | 6.94857 | 85 ft | 16 kts | 29° |
| 2026-04-25 08:51 | 5.01038 | 6.94913 | 85 ft | 18 kts | 27° |
| 2026-04-25 08:52 | 5.01155 | 6.94976 | 86 ft | 19 kts | 28° |
| 2026-04-25 08:52 | 5.01276 | 6.95041 | 86 ft | 20 kts | 27° |
| 2026-04-25 08:52 | 5.01405 | 6.95109 | 87 ft | 20 kts | 28° |
| 2026-04-25 08:52 | 5.01505 | 6.95165 | 89 ft | 13 kts | 41° |
| 2026-04-25 08:53 | 5.01512 | 6.95198 | 89 ft | 5 kts | 94° |
| 2026-04-25 08:53 | 5.01497 | 6.95238 | 89 ft | 8 kts | 116° |
| 2026-04-25 08:53 | 5.01474 | 6.95281 | 88 ft | 4 kts | 119° |
| 2026-04-25 08:53 | 5.01473 | 6.95283 | 86 ft | 0 kts | 118° |